METAR Data
IDs: Format: Raw Decoded Include TAF

Data at: 2306 UTC 29 May 2020

PTKK 292255Z COR VRB03KT 13SM -SHRA SCT012CB BKN120 OVC280 27/26 A2993 RMK SHRAB32 CB ALQDS SLP138 T02700262